createdAt,value
2018-08-09T00:00:40.917Z,1010.37
2018-08-09T00:01:40.926Z,1010.36
2018-08-09T00:02:40.890Z,1010.38
2018-08-09T00:03:40.875Z,1010.37
2018-08-09T00:04:40.864Z,1010.36
2018-08-09T00:05:40.887Z,1010.40
2018-08-09T00:06:40.837Z,1010.37
2018-08-09T00:07:40.820Z,1010.36
2018-08-09T00:08:40.810Z,1010.36
2018-08-09T00:09:40.792Z,1010.36
2018-08-09T00:10:40.778Z,1010.30
2018-08-09T00:11:40.767Z,1010.30
2018-08-09T00:12:40.749Z,1010.25
2018-08-09T00:13:40.733Z,1010.29
2018-08-09T00:14:40.730Z,1010.27
2018-08-09T00:15:40.710Z,1010.29
2018-08-09T00:16:40.690Z,1010.25
2018-08-09T00:17:40.677Z,1010.28
2018-08-09T00:18:40.667Z,1010.25
2018-08-09T00:19:40.655Z,1010.25
2018-08-09T00:20:40.631Z,1010.26
2018-08-09T00:21:40.618Z,1010.25
2018-08-09T00:22:40.605Z,1010.23
2018-08-09T00:23:40.602Z,1010.26
2018-08-09T00:24:40.575Z,1010.25
2018-08-09T00:25:40.561Z,1010.25
2018-08-09T00:26:40.559Z,1010.27
2018-08-09T00:27:40.542Z,1010.26
2018-08-09T00:28:40.524Z,1010.28
2018-08-09T00:29:40.504Z,1010.26
2018-08-09T00:30:40.503Z,1010.25
2018-08-09T00:31:40.476Z,1010.27
2018-08-09T00:32:40.463Z,1010.27
2018-08-09T00:33:40.447Z,1010.28
2018-08-09T00:34:40.434Z,1010.27
2018-08-09T00:35:40.419Z,1010.26
2018-08-09T00:36:40.412Z,1010.25
2018-08-09T00:37:40.392Z,1010.25
2018-08-09T00:38:40.378Z,1010.27
2018-08-09T00:39:40.362Z,1010.28
2018-08-09T00:40:40.348Z,1010.29
2018-08-09T00:41:40.334Z,1010.25
2018-08-09T00:42:40.323Z,1010.28
2018-08-09T00:43:40.311Z,1010.28
2018-08-09T00:44:40.289Z,1010.25
2018-08-09T00:45:40.276Z,1010.24
2018-08-09T00:46:40.262Z,1010.27
2018-08-09T00:47:40.247Z,1010.26
2018-08-09T00:48:40.232Z,1010.26
2018-08-09T00:49:40.217Z,1010.24
2018-08-09T00:50:40.208Z,1010.23
2018-08-09T00:51:40.189Z,1010.24
2018-08-09T00:52:40.175Z,1010.24
2018-08-09T00:53:40.159Z,1010.24
2018-08-09T00:54:40.146Z,1010.25
2018-08-09T00:55:40.130Z,1010.25
2018-08-09T00:56:40.117Z,1010.27
2018-08-09T00:57:40.104Z,1010.27
2018-08-09T00:58:40.095Z,1010.29
2018-08-09T00:59:40.077Z,1010.28
2018-08-09T01:00:40.060Z,1010.31
2018-08-09T01:01:40.045Z,1010.34
2018-08-09T01:02:40.032Z,1010.29
2018-08-09T01:03:40.020Z,1010.28
2018-08-09T01:04:40.001Z,1010.28
2018-08-09T01:05:39.998Z,1010.23
2018-08-09T01:06:39.974Z,1010.21
2018-08-09T01:07:39.971Z,1010.21
2018-08-09T01:08:39.944Z,1010.20
2018-08-09T01:09:39.930Z,1010.22
2018-08-09T01:10:39.923Z,1010.24
2018-08-09T01:11:39.902Z,1010.22
2018-08-09T01:12:39.890Z,1010.22
2018-08-09T01:13:39.875Z,1010.17
2018-08-09T01:14:39.862Z,1010.16
2018-08-09T01:15:39.845Z,1010.10
2018-08-09T01:16:39.829Z,1010.11
2018-08-09T01:17:39.819Z,1010.16
2018-08-09T01:18:39.801Z,1010.13
2018-08-09T01:19:39.789Z,1010.17
2018-08-09T01:20:39.773Z,1010.17
2018-08-09T01:21:39.759Z,1010.22
2018-08-09T01:22:39.747Z,1010.22
2018-08-09T01:23:39.730Z,1010.18
2018-08-09T01:24:39.716Z,1010.17
2018-08-09T01:25:39.701Z,1010.16
2018-08-09T01:26:39.688Z,1010.19
2018-08-09T01:27:39.673Z,1010.22
2018-08-09T01:28:39.658Z,1010.21
2018-08-09T01:29:39.644Z,1010.23
2018-08-09T01:30:39.630Z,1010.20
2018-08-09T01:31:39.619Z,1010.18
2018-08-09T01:32:39.603Z,1010.15
2018-08-09T01:33:39.587Z,1010.14
2018-08-09T01:34:39.573Z,1010.11
2018-08-09T01:35:39.560Z,1010.12
2018-08-09T01:36:39.544Z,1010.08
2018-08-09T01:37:39.554Z,1010.03
2018-08-09T01:38:39.528Z,1010.04
2018-08-09T01:39:39.501Z,1010.00
2018-08-09T01:40:39.488Z,1010.02
2018-08-09T01:41:39.471Z,1010.01
2018-08-09T01:42:39.458Z,1010.01
2018-08-09T01:43:39.443Z,1010.03
2018-08-09T01:44:39.435Z,1010.00
2018-08-09T01:45:39.413Z,1010.01
2018-08-09T01:46:39.399Z,1009.98
2018-08-09T01:47:39.389Z,1009.93
2018-08-09T01:48:39.370Z,1009.88
2018-08-09T01:49:39.355Z,1009.87
2018-08-09T01:50:39.347Z,1009.84
2018-08-09T01:51:39.327Z,1009.88
2018-08-09T01:52:39.313Z,1009.86
2018-08-09T01:53:39.303Z,1009.87
2018-08-09T01:54:39.289Z,1009.86
2018-08-09T01:55:39.270Z,1009.88
2018-08-09T01:56:39.256Z,1009.88
2018-08-09T01:57:39.241Z,1009.87
2018-08-09T01:58:39.232Z,1009.89
2018-08-09T01:59:39.215Z,1009.91
2018-08-09T02:00:39.200Z,1009.88
2018-08-09T02:01:39.184Z,1009.87
2018-08-09T02:02:39.172Z,1009.85
2018-08-09T02:03:39.158Z,1009.87
2018-08-09T02:04:39.207Z,1009.82
2018-08-09T02:05:39.128Z,1009.82
2018-08-09T02:06:39.111Z,1009.82
2018-08-09T02:07:39.099Z,1009.83
2018-08-09T02:08:39.082Z,1009.84
2018-08-09T02:09:39.072Z,1009.80
2018-08-09T02:10:39.053Z,1009.80
2018-08-09T02:11:39.039Z,1009.81
2018-08-09T02:12:39.023Z,1009.81
2018-08-09T02:13:39.008Z,1009.81
2018-08-09T02:14:38.995Z,1009.80
2018-08-09T02:15:38.982Z,1009.80
2018-08-09T02:16:38.966Z,1009.83
2018-08-09T02:17:38.954Z,1009.85
2018-08-09T02:18:38.938Z,1009.86
2018-08-09T02:19:38.921Z,1009.87
2018-08-09T02:20:38.907Z,1009.87
2018-08-09T02:21:38.891Z,1009.83
2018-08-09T02:22:38.877Z,1009.85
2018-08-09T02:23:38.875Z,1009.85
2018-08-09T02:24:38.854Z,1009.87
2018-08-09T02:25:38.834Z,1009.85
2018-08-09T02:26:38.819Z,1009.86
2018-08-09T02:27:38.807Z,1009.87
2018-08-09T02:28:38.791Z,1009.85
2018-08-09T02:29:38.778Z,1009.84
2018-08-09T02:30:38.762Z,1009.81
2018-08-09T02:31:38.749Z,1009.81
2018-08-09T02:32:38.742Z,1009.71
2018-08-09T02:33:38.718Z,1009.69
2018-08-09T02:34:38.704Z,1009.71
2018-08-09T02:35:38.690Z,1009.73
2018-08-09T02:36:38.674Z,1009.76
2018-08-09T02:37:38.662Z,1009.78
2018-08-09T02:38:38.646Z,1009.80
2018-08-09T02:39:38.633Z,1009.78
2018-08-09T02:40:38.617Z,1009.78
2018-08-09T02:41:38.603Z,1009.78
2018-08-09T02:42:38.591Z,1009.80
2018-08-09T02:43:38.580Z,1009.78
2018-08-09T02:44:38.570Z,1009.76
2018-08-09T02:45:38.544Z,1009.73
2018-08-09T02:46:38.572Z,1009.70
2018-08-09T02:47:38.516Z,1009.69
2018-08-09T02:48:38.499Z,1009.68
2018-08-09T02:49:38.492Z,1009.68
2018-08-09T02:50:38.473Z,1009.72
2018-08-09T02:51:38.457Z,1009.72
2018-08-09T02:52:38.442Z,1009.73
2018-08-09T02:53:38.428Z,1009.74
2018-08-09T02:54:38.415Z,1009.70
2018-08-09T02:55:38.398Z,1009.71
2018-08-09T02:56:38.384Z,1009.69
2018-08-09T02:57:38.388Z,1009.68
2018-08-09T02:58:38.354Z,1009.74
2018-08-09T02:59:38.344Z,1009.73
2018-08-09T03:00:38.324Z,1009.69
2018-08-09T03:01:38.309Z,1009.65
2018-08-09T03:02:38.293Z,1009.57
2018-08-09T03:03:38.280Z,1009.55
2018-08-09T03:04:38.264Z,1009.54
2018-08-09T03:05:38.249Z,1009.54
2018-08-09T03:06:38.234Z,1009.52
2018-08-09T03:07:38.220Z,1009.55
2018-08-09T03:08:38.206Z,1009.59
2018-08-09T03:09:38.195Z,1009.58
2018-08-09T03:10:38.179Z,1009.59
2018-08-09T03:11:38.161Z,1009.59
2018-08-09T03:12:38.151Z,1009.59
2018-08-09T03:13:38.133Z,1009.66
2018-08-09T03:14:38.116Z,1009.67
2018-08-09T03:15:38.104Z,1009.63
2018-08-09T03:16:38.086Z,1009.64
2018-08-09T03:17:38.072Z,1009.57
2018-08-09T03:18:38.059Z,1009.59
2018-08-09T03:19:38.045Z,1009.59
2018-08-09T03:20:38.029Z,1009.64
2018-08-09T03:21:38.014Z,1009.65
2018-08-09T03:22:37.998Z,1009.62
2018-08-09T03:23:37.990Z,1009.58
2018-08-09T03:24:37.969Z,1009.61
2018-08-09T03:25:37.955Z,1009.63
2018-08-09T03:26:37.943Z,1009.64
2018-08-09T03:27:37.924Z,1009.64
2018-08-09T03:28:37.909Z,1009.66
2018-08-09T03:29:37.895Z,1009.65
2018-08-09T03:30:37.887Z,1009.65
2018-08-09T03:31:37.866Z,1009.64
2018-08-09T03:32:37.849Z,1009.62
2018-08-09T03:33:37.839Z,1009.63
2018-08-09T03:34:37.820Z,1009.61
2018-08-09T03:35:37.805Z,1009.61
2018-08-09T03:36:37.790Z,1009.56
2018-08-09T03:37:37.779Z,1009.60
2018-08-09T03:38:37.765Z,1009.56
2018-08-09T03:39:37.746Z,1009.59
2018-08-09T03:40:37.732Z,1009.61
2018-08-09T03:41:37.718Z,1009.60
2018-08-09T03:42:37.702Z,1009.60
2018-08-09T03:43:37.686Z,1009.59
2018-08-09T03:44:37.675Z,1009.55
2018-08-09T03:45:37.658Z,1009.53
2018-08-09T03:46:37.642Z,1009.46
2018-08-09T03:47:37.626Z,1009.44
2018-08-09T03:48:37.613Z,1009.38
2018-08-09T03:49:37.597Z,1009.40
2018-08-09T03:50:37.581Z,1009.30
2018-08-09T03:51:37.571Z,1009.32
2018-08-09T03:52:37.552Z,1009.35
2018-08-09T03:53:37.539Z,1009.34
2018-08-09T03:54:37.523Z,1009.40
2018-08-09T03:55:37.512Z,1009.43
2018-08-09T03:56:37.494Z,1009.45
2018-08-09T03:57:37.478Z,1009.46
2018-08-09T03:58:37.466Z,1009.49
2018-08-09T03:59:37.502Z,1009.51
2018-08-09T04:00:37.438Z,1009.51
2018-08-09T04:01:37.428Z,1009.51
2018-08-09T04:02:37.405Z,1009.51
2018-08-09T04:03:37.389Z,1009.50
2018-08-09T04:04:37.376Z,1009.51
2018-08-09T04:05:37.366Z,1009.51
2018-08-09T04:06:37.348Z,1009.56
2018-08-09T04:07:37.331Z,1009.59
2018-08-09T04:08:37.322Z,1009.63
2018-08-09T04:09:37.302Z,1009.63
2018-08-09T04:10:37.285Z,1009.62
2018-08-09T04:11:37.278Z,1009.58
2018-08-09T04:12:37.258Z,1009.56
2018-08-09T04:13:37.239Z,1009.57
2018-08-09T04:14:37.232Z,1009.54
2018-08-09T04:15:37.212Z,1009.48
2018-08-09T04:16:37.197Z,1009.44
2018-08-09T04:17:37.178Z,1009.46
2018-08-09T04:18:37.167Z,1009.45
2018-08-09T04:19:37.153Z,1009.52
2018-08-09T04:20:37.135Z,1009.53
2018-08-09T04:21:37.121Z,1009.56
2018-08-09T04:22:37.110Z,1009.55
2018-08-09T04:23:37.089Z,1009.53
2018-08-09T04:24:37.074Z,1009.59
2018-08-09T04:25:37.060Z,1009.57
2018-08-09T04:26:37.108Z,1009.61
2018-08-09T04:27:37.034Z,1009.59
2018-08-09T04:28:37.014Z,1009.63
2018-08-09T04:29:37.004Z,1009.65
2018-08-09T04:30:36.987Z,1009.66
2018-08-09T04:31:36.973Z,1009.67
2018-08-09T04:32:36.953Z,1009.67
2018-08-09T04:33:36.938Z,1009.65
2018-08-09T04:34:36.929Z,1009.63
2018-08-09T04:35:36.911Z,1009.60
2018-08-09T04:36:36.894Z,1009.65
2018-08-09T04:37:36.879Z,1009.60
2018-08-09T04:38:36.867Z,1009.66
2018-08-09T04:39:36.850Z,1009.65
2018-08-09T04:40:36.834Z,1009.63
2018-08-09T04:41:36.818Z,1009.60
2018-08-09T04:42:36.806Z,1009.65
2018-08-09T04:43:36.790Z,1009.63
2018-08-09T04:44:36.774Z,1009.66
2018-08-09T04:45:36.763Z,1009.67
2018-08-09T04:46:36.744Z,1009.68
2018-08-09T04:47:36.728Z,1009.72
2018-08-09T04:48:36.713Z,1009.73
2018-08-09T04:49:36.698Z,1009.76
2018-08-09T04:50:36.684Z,1009.74
2018-08-09T04:51:36.673Z,1009.71
2018-08-09T04:52:36.654Z,1009.73
2018-08-09T04:53:36.639Z,1009.75
2018-08-09T04:54:36.624Z,1009.72
2018-08-09T04:55:36.609Z,1009.69
2018-08-09T04:56:36.598Z,1009.73
2018-08-09T04:57:36.579Z,1009.76
2018-08-09T04:58:36.564Z,1009.82
2018-08-09T04:59:36.548Z,1009.80
2018-08-09T05:00:36.532Z,1009.84
2018-08-09T05:01:36.524Z,1009.81
2018-08-09T05:02:36.507Z,1009.78
2018-08-09T05:03:36.490Z,1009.82
2018-08-09T05:04:36.475Z,1009.82
2018-08-09T05:05:36.459Z,1009.77
2018-08-09T05:06:36.446Z,1009.83
2018-08-09T05:07:36.431Z,1009.79
2018-08-09T05:08:36.414Z,1009.79
2018-08-09T05:09:36.402Z,1009.75
2018-08-09T05:10:36.388Z,1009.68
2018-08-09T05:11:36.373Z,1009.66
2018-08-09T05:12:36.360Z,1009.62
2018-08-09T05:13:36.340Z,1009.65
2018-08-09T05:14:36.327Z,1009.61
2018-08-09T05:15:36.312Z,1009.63
2018-08-09T05:16:36.297Z,1009.62
2018-08-09T05:17:36.281Z,1009.60
2018-08-09T05:18:36.269Z,1009.65
2018-08-09T05:19:36.253Z,1009.63
2018-08-09T05:20:36.239Z,1009.64
2018-08-09T05:21:36.224Z,1009.68
2018-08-09T05:22:36.209Z,1009.60
2018-08-09T05:23:36.200Z,1009.62
2018-08-09T05:24:36.179Z,1009.63
2018-08-09T05:25:36.163Z,1009.60
2018-08-09T05:26:36.149Z,1009.58
2018-08-09T05:27:36.134Z,1009.60
2018-08-09T05:28:36.121Z,1009.57
2018-08-09T05:29:36.105Z,1009.54
2018-08-09T05:30:36.090Z,1009.54
2018-08-09T05:31:36.077Z,1009.53
2018-08-09T05:32:36.060Z,1009.52
2018-08-09T05:33:36.047Z,1009.56
2018-08-09T05:34:36.031Z,1009.54
2018-08-09T05:35:36.017Z,1009.54
2018-08-09T05:36:36.010Z,1009.54
2018-08-09T05:37:35.986Z,1009.56
2018-08-09T05:38:35.971Z,1009.52
2018-08-09T05:39:35.958Z,1009.49
2018-08-09T05:40:35.943Z,1009.44
2018-08-09T05:41:35.926Z,1009.42
2018-08-09T05:42:35.914Z,1009.43
2018-08-09T05:43:35.898Z,1009.43
2018-08-09T05:44:35.882Z,1009.35
2018-08-09T05:45:35.874Z,1009.33
2018-08-09T05:46:35.858Z,1009.29
2018-08-09T05:47:35.847Z,1009.28
2018-08-09T05:48:35.827Z,1009.20
2018-08-09T05:49:35.813Z,1009.26
2018-08-09T05:50:35.793Z,1009.28
2018-08-09T05:51:35.778Z,1009.24
2018-08-09T05:52:35.804Z,1009.23
2018-08-09T05:53:35.751Z,1009.22
2018-08-09T05:54:35.735Z,1009.26
2018-08-09T05:55:35.718Z,1009.26
2018-08-09T05:56:35.705Z,1009.26
2018-08-09T05:57:35.690Z,1009.21
2018-08-09T05:58:35.728Z,1009.27
2018-08-09T05:59:35.671Z,1009.24
2018-08-09T06:00:35.647Z,1009.22
2018-08-09T06:01:35.636Z,1009.21
2018-08-09T06:02:35.621Z,1009.18
2018-08-09T06:03:35.605Z,1009.15
2018-08-09T06:04:35.594Z,1009.13
2018-08-09T06:05:35.584Z,1009.12
2018-08-09T06:06:35.560Z,1009.10
2018-08-09T06:07:35.549Z,1009.12
2018-08-09T06:08:35.532Z,1009.18
2018-08-09T06:09:35.516Z,1009.20
2018-08-09T06:10:35.503Z,1009.23
2018-08-09T06:11:35.486Z,1009.26
2018-08-09T06:12:35.471Z,1009.26
2018-08-09T06:13:35.555Z,1009.25
2018-08-09T06:14:35.445Z,1009.25
2018-08-09T06:15:35.432Z,1009.24
2018-08-09T06:16:35.414Z,1009.26
2018-08-09T06:17:35.401Z,1009.27
2018-08-09T06:18:35.388Z,1009.26
2018-08-09T06:19:35.371Z,1009.28
2018-08-09T06:20:35.357Z,1009.24
2018-08-09T06:21:35.340Z,1009.21
2018-08-09T06:22:35.329Z,1009.24
2018-08-09T06:23:35.316Z,1009.23
2018-08-09T06:24:35.299Z,1009.26
2018-08-09T06:25:35.287Z,1009.19
2018-08-09T06:26:35.273Z,1009.18
2018-08-09T06:27:35.256Z,1009.19
2018-08-09T06:28:35.243Z,1009.22
2018-08-09T06:29:35.230Z,1009.19
2018-08-09T06:30:35.212Z,1009.16
2018-08-09T06:31:35.202Z,1009.18
2018-08-09T06:32:35.183Z,1009.15
2018-08-09T06:33:35.258Z,1009.16
2018-08-09T06:34:35.154Z,1009.19
2018-08-09T06:35:35.142Z,1009.18
2018-08-09T06:36:35.124Z,1009.17
2018-08-09T06:37:35.111Z,1009.13
2018-08-09T06:38:35.101Z,1009.08
2018-08-09T06:39:35.083Z,1009.11
2018-08-09T06:40:35.068Z,1009.06
2018-08-09T06:41:35.054Z,1009.05
2018-08-09T06:42:35.039Z,1009.07
2018-08-09T06:43:35.025Z,1009.07
2018-08-09T06:44:35.013Z,1009.06
2018-08-09T06:45:34.994Z,1009.04
2018-08-09T06:46:34.988Z,1009.04
2018-08-09T06:47:34.991Z,1009.06
2018-08-09T06:48:34.953Z,1009.08
2018-08-09T06:49:34.943Z,1009.09
2018-08-09T06:50:34.931Z,1009.07
2018-08-09T06:51:34.911Z,1009.09
2018-08-09T06:52:34.900Z,1009.08
2018-08-09T06:53:34.879Z,1009.08
2018-08-09T06:54:34.874Z,1009.09
2018-08-09T06:55:34.852Z,1009.10
2018-08-09T06:56:34.838Z,1009.10
2018-08-09T06:57:34.825Z,1009.07
2018-08-09T06:58:34.810Z,1009.08
2018-08-09T06:59:34.797Z,1009.05
2018-08-09T07:00:34.780Z,1009.01
2018-08-09T07:01:34.766Z,1008.99
2018-08-09T07:02:34.754Z,1009.01
2018-08-09T07:03:34.744Z,1009.04
2018-08-09T07:04:34.722Z,1009.02
2018-08-09T07:05:34.719Z,1008.96
2018-08-09T07:06:34.694Z,1008.95
2018-08-09T07:07:34.684Z,1008.91
2018-08-09T07:08:34.663Z,1008.85
2018-08-09T07:09:34.651Z,1008.81
2018-08-09T07:10:34.637Z,1008.76
2018-08-09T07:11:34.634Z,1008.77
2018-08-09T07:12:34.608Z,1008.74
2018-08-09T07:13:34.593Z,1008.75
2018-08-09T07:14:34.583Z,1008.78
2018-08-09T07:15:34.567Z,1008.81
2018-08-09T07:16:34.552Z,1008.84
2018-08-09T07:17:34.538Z,1008.88
2018-08-09T07:18:34.522Z,1008.93
2018-08-09T07:19:34.505Z,1008.93
2018-08-09T07:20:34.495Z,1008.94
2018-08-09T07:21:34.480Z,1008.89
2018-08-09T07:22:34.463Z,1008.88
2018-08-09T07:23:34.449Z,1008.87
2018-08-09T07:24:34.434Z,1008.87
2018-08-09T07:25:34.423Z,1008.87
2018-08-09T07:26:34.556Z,1008.83
2018-08-09T07:27:34.390Z,1008.85
2018-08-09T07:28:34.377Z,1008.86
2018-08-09T07:29:34.364Z,1008.89
2018-08-09T07:30:34.348Z,1008.89
2018-08-09T07:31:34.338Z,1008.90
2018-08-09T07:32:34.320Z,1008.91
2018-08-09T07:33:34.311Z,1008.93
2018-08-09T07:34:34.290Z,1008.93
2018-08-09T07:35:34.283Z,1008.92
2018-08-09T07:36:34.286Z,1008.92
2018-08-09T07:37:34.258Z,1008.88
2018-08-09T07:38:34.245Z,1008.90
2018-08-09T07:39:34.308Z,1008.86
2018-08-09T07:40:34.207Z,1008.87
2018-08-09T07:41:34.192Z,1008.85
2018-08-09T07:42:34.177Z,1008.83
2018-08-09T07:43:34.162Z,1008.82
2018-08-09T07:44:34.147Z,1008.79
2018-08-09T07:45:34.137Z,1008.76
2018-08-09T07:46:34.118Z,1008.80
2018-08-09T07:47:34.106Z,1008.80
2018-08-09T07:48:34.124Z,1008.82
2018-08-09T07:49:34.088Z,1008.85
2018-08-09T07:50:34.063Z,1008.88
2018-08-09T07:51:34.053Z,1008.88
2018-08-09T07:52:34.034Z,1008.93
2018-08-09T07:53:34.019Z,1008.91
2018-08-09T07:54:34.008Z,1008.97
2018-08-09T07:55:34.001Z,1008.94
2018-08-09T07:56:33.982Z,1008.95
2018-08-09T07:57:33.964Z,1008.94
2018-08-09T07:58:33.951Z,1008.97
2018-08-09T07:59:33.937Z,1008.98
2018-08-09T08:00:33.927Z,1008.96
2018-08-09T08:01:33.920Z,1008.94
2018-08-09T08:02:33.893Z,1008.92
2018-08-09T08:03:33.886Z,1008.88
2018-08-09T08:04:33.866Z,1008.86
2018-08-09T08:05:33.855Z,1008.84
2018-08-09T08:06:33.855Z,1008.85
2018-08-09T08:07:33.832Z,1008.78
2018-08-09T08:08:33.813Z,1008.79
2018-08-09T08:09:33.802Z,1008.75
2018-08-09T08:10:33.784Z,1008.71
2018-08-09T08:11:33.777Z,1008.68
2018-08-09T08:12:33.754Z,1008.68
2018-08-09T08:13:33.753Z,1008.73
2018-08-09T08:14:33.733Z,1008.72
2018-08-09T08:15:33.717Z,1008.74
2018-08-09T08:16:33.699Z,1008.61
2018-08-09T08:17:33.686Z,1008.53
2018-08-09T08:18:33.674Z,1008.39
2018-08-09T08:19:33.660Z,1008.33
2018-08-09T08:20:33.665Z,1008.25
2018-08-09T08:21:33.631Z,1008.22
2018-08-09T08:22:33.619Z,1008.22
2018-08-09T08:23:33.603Z,1008.20
2018-08-09T08:24:33.589Z,1008.23
2018-08-09T08:25:33.576Z,1008.32
2018-08-09T08:26:33.561Z,1008.34
2018-08-09T08:27:33.555Z,1008.38
2018-08-09T08:28:33.533Z,1008.40
2018-08-09T08:29:33.525Z,1008.36
2018-08-09T08:30:33.507Z,1008.24
2018-08-09T08:31:33.497Z,1008.20
2018-08-09T08:32:33.485Z,1008.17
2018-08-09T08:33:33.462Z,1008.24
2018-08-09T08:34:33.508Z,1008.26
2018-08-09T08:35:33.442Z,1008.27
2018-08-09T08:36:33.426Z,1008.20
2018-08-09T08:37:33.412Z,1008.16
2018-08-09T08:38:33.393Z,1008.15
2018-08-09T08:39:33.384Z,1008.12
2018-08-09T08:40:33.366Z,1008.09
2018-08-09T08:41:33.430Z,1008.15
2018-08-09T08:42:33.345Z,1008.13
2018-08-09T08:43:33.327Z,1008.13
2018-08-09T08:44:33.311Z,1008.17
2018-08-09T08:45:33.325Z,1008.15
2018-08-09T08:46:33.286Z,1008.16
2018-08-09T08:47:33.333Z,1008.03
2018-08-09T08:48:33.260Z,1008.00
2018-08-09T08:49:33.260Z,1008.03
2018-08-09T08:50:33.253Z,1007.97
2018-08-09T08:51:33.224Z,1007.96
2018-08-09T08:52:33.206Z,1007.94
2018-08-09T08:53:33.200Z,1007.91
2018-08-09T08:54:33.180Z,1007.86
2018-08-09T08:55:33.170Z,1007.76
2018-08-09T08:56:33.155Z,1007.80
2018-08-09T08:57:33.142Z,1007.78
2018-08-09T08:58:33.134Z,1007.75
2018-08-09T08:59:33.116Z,1007.82
2018-08-09T09:00:33.137Z,1007.77
2018-08-09T09:01:33.089Z,1007.76
2018-08-09T09:02:33.072Z,1007.75
2018-08-09T09:03:33.063Z,1007.72
2018-08-09T09:04:33.048Z,1007.63
2018-08-09T09:05:33.036Z,1007.59
2018-08-09T09:06:33.025Z,1007.59
2018-08-09T09:07:33.008Z,1007.56
2018-08-09T09:08:32.993Z,1007.53
2018-08-09T09:09:32.986Z,1007.51
2018-08-09T09:10:32.993Z,1007.56
2018-08-09T09:11:32.959Z,1007.57
2018-08-09T09:12:32.942Z,1007.50
2018-08-09T09:13:32.929Z,1007.51
2018-08-09T09:14:32.916Z,1007.48
2018-08-09T09:15:32.902Z,1007.42
2018-08-09T09:16:32.887Z,1007.37
2018-08-09T09:17:32.874Z,1007.34
2018-08-09T09:18:32.883Z,1007.33
2018-08-09T09:19:32.850Z,1007.34
2018-08-09T09:20:32.839Z,1007.33
2018-08-09T09:21:32.825Z,1007.29
2018-08-09T09:22:32.809Z,1007.30
2018-08-09T09:23:32.796Z,1007.26
2018-08-09T09:24:32.783Z,1007.29
2018-08-09T09:25:32.776Z,1007.26
2018-08-09T09:26:32.759Z,1007.24
2018-08-09T09:27:32.745Z,1007.22
2018-08-09T09:28:32.739Z,1007.23
2018-08-09T09:29:32.717Z,1007.22
2018-08-09T09:30:32.709Z,1007.21
2018-08-09T09:31:32.696Z,1007.22
2018-08-09T09:32:32.679Z,1007.24
2018-08-09T09:33:32.666Z,1007.23
2018-08-09T09:34:32.654Z,1007.27
2018-08-09T09:35:32.641Z,1007.36
2018-08-09T09:36:32.635Z,1007.35
2018-08-09T09:37:32.620Z,1007.34
2018-08-09T09:38:32.605Z,1007.47
2018-08-09T09:39:32.590Z,1007.34
2018-08-09T09:40:32.578Z,1007.31
2018-08-09T09:41:32.571Z,1007.27
2018-08-09T09:42:32.552Z,1007.32
2018-08-09T09:43:32.535Z,1007.29
2018-08-09T09:44:32.523Z,1007.25
2018-08-09T09:45:32.519Z,1007.28
2018-08-09T09:46:32.505Z,1007.21
2018-08-09T09:47:32.490Z,1007.16
2018-08-09T09:48:32.479Z,1007.17
2018-08-09T09:49:32.466Z,1007.12
2018-08-09T09:50:32.465Z,1007.08
2018-08-09T09:51:32.440Z,1007.08
2018-08-09T09:52:32.424Z,1006.98
2018-08-09T09:53:32.419Z,1006.99
2018-08-09T09:54:32.398Z,1006.97
2018-08-09T09:55:32.387Z,1006.94
2018-08-09T09:56:32.377Z,1006.91
2018-08-09T09:57:32.371Z,1006.93
2018-08-09T09:58:32.349Z,1006.85
2018-08-09T09:59:32.346Z,1006.90
2018-08-09T10:00:32.326Z,1006.94
2018-08-09T10:01:32.313Z,1006.93
2018-08-09T10:02:32.306Z,1006.82
2018-08-09T10:03:32.291Z,1006.90
2018-08-09T10:04:32.293Z,1006.82
2018-08-09T10:05:32.265Z,1006.82
2018-08-09T10:06:32.259Z,1006.80
2018-08-09T10:07:32.245Z,1006.75
2018-08-09T10:08:32.233Z,1006.75
2018-08-09T10:09:32.219Z,1006.70
2018-08-09T10:10:32.214Z,1006.68
2018-08-09T10:11:32.198Z,1006.66
2018-08-09T10:12:32.183Z,1006.73
2018-08-09T10:13:32.170Z,1006.69
2018-08-09T10:14:32.159Z,1006.71
2018-08-09T10:15:32.146Z,1006.60
2018-08-09T10:16:32.134Z,1006.58
2018-08-09T10:17:32.121Z,1006.49
2018-08-09T10:18:32.123Z,1006.49
2018-08-09T10:19:32.098Z,1006.49
2018-08-09T10:20:32.097Z,1006.46
2018-08-09T10:21:32.086Z,1006.41
2018-08-09T10:22:32.062Z,1006.41
2018-08-09T10:23:32.056Z,1006.33
2018-08-09T10:24:32.039Z,1006.39
2018-08-09T10:25:32.026Z,1006.37
2018-08-09T10:26:32.014Z,1006.38
2018-08-09T10:27:32.002Z,1006.31
2018-08-09T10:28:31.992Z,1006.31
2018-08-09T10:29:31.980Z,1006.21
2018-08-09T10:30:31.965Z,1006.15
2018-08-09T10:31:31.959Z,1006.12
2018-08-09T10:32:31.947Z,1006.08
2018-08-09T10:33:31.942Z,1006.03
2018-08-09T10:34:31.921Z,1006.03
2018-08-09T10:35:31.926Z,1006.00
2018-08-09T10:36:31.898Z,1006.00
2018-08-09T10:37:31.884Z,1005.95
2018-08-09T10:38:31.881Z,1005.88
2018-08-09T10:39:31.869Z,1005.84
2018-08-09T10:40:31.850Z,1005.82
2018-08-09T10:41:31.840Z,1005.74
2018-08-09T10:42:31.830Z,1005.66
2018-08-09T10:43:31.817Z,1005.64
2018-08-09T10:44:31.805Z,1005.57
2018-08-09T10:45:31.792Z,1005.54
2018-08-09T10:46:31.785Z,1005.58
2018-08-09T10:47:31.776Z,1005.56
2018-08-09T10:48:31.757Z,1005.57
2018-08-09T10:49:31.763Z,1005.59
2018-08-09T10:50:31.741Z,1005.62
2018-08-09T10:51:31.724Z,1005.53
2018-08-09T10:52:31.713Z,1005.51
2018-08-09T10:53:31.701Z,1005.49
2018-08-09T10:54:31.694Z,1005.49
2018-08-09T10:55:31.680Z,1005.47
2018-08-09T10:56:31.664Z,1005.45
2018-08-09T10:57:31.662Z,1005.44
2018-08-09T10:58:31.645Z,1005.48
2018-08-09T10:59:31.632Z,1005.42
2018-08-09T11:00:31.627Z,1005.44
2018-08-09T11:01:31.610Z,1005.37
2018-08-09T11:02:31.612Z,1005.35
2018-08-09T11:03:31.590Z,1005.32
2018-08-09T11:04:31.576Z,1005.35
2018-08-09T11:05:31.566Z,1005.39
2018-08-09T11:06:31.566Z,1005.29
2018-08-09T11:07:31.544Z,1005.34
2018-08-09T11:08:31.533Z,1005.34
2018-08-09T11:09:31.523Z,1005.34
2018-08-09T11:10:31.512Z,1005.31
2018-08-09T11:11:31.503Z,1005.30
2018-08-09T11:12:31.495Z,1005.27
2018-08-09T11:13:31.486Z,1005.26
2018-08-09T11:14:31.467Z,1005.31
2018-08-09T11:15:31.455Z,1005.20
2018-08-09T11:16:31.449Z,1005.19
2018-08-09T11:17:31.439Z,1005.09
2018-08-09T11:18:31.422Z,1005.04
2018-08-09T11:19:31.409Z,1005.07
2018-08-09T11:20:31.414Z,1005.10
2018-08-09T11:21:31.390Z,1005.07
2018-08-09T11:22:31.381Z,1005.08
2018-08-09T11:23:31.367Z,1005.04
2018-08-09T11:24:31.355Z,1005.04
2018-08-09T11:25:31.345Z,1005.05
2018-08-09T11:26:31.335Z,1004.98
2018-08-09T11:27:31.327Z,1004.98
2018-08-09T11:28:31.317Z,1004.90
2018-08-09T11:29:31.302Z,1004.91
2018-08-09T11:30:31.295Z,1004.84
2018-08-09T11:31:31.290Z,1004.82
2018-08-09T11:32:31.268Z,1004.76
2018-08-09T11:33:31.274Z,1004.74
2018-08-09T11:34:31.249Z,1004.76
2018-08-09T11:35:31.238Z,1004.72
2018-08-09T11:36:31.226Z,1004.70
2018-08-09T11:37:31.219Z,1004.64
2018-08-09T11:38:31.204Z,1004.63
2018-08-09T11:39:31.194Z,1004.65
2018-08-09T11:40:31.182Z,1004.61
2018-08-09T11:41:31.173Z,1004.58
2018-08-09T11:42:31.164Z,1004.53
2018-08-09T11:43:31.150Z,1004.52
2018-08-09T11:44:31.137Z,1004.54
2018-08-09T11:45:31.130Z,1004.50
2018-08-09T11:46:31.124Z,1004.41
2018-08-09T11:47:31.115Z,1004.38
2018-08-09T11:48:31.098Z,1004.35
2018-08-09T11:49:31.087Z,1004.35
2018-08-09T11:50:31.071Z,1004.26
2018-08-09T11:51:31.062Z,1004.26
2018-08-09T11:52:31.053Z,1004.20
2018-08-09T11:53:31.040Z,1004.13
2018-08-09T11:54:31.029Z,1004.15
2018-08-09T11:55:31.020Z,1004.10
2018-08-09T11:56:31.077Z,1004.14
2018-08-09T11:57:31.004Z,1004.11
2018-08-09T11:58:30.990Z,1004.06
2018-08-09T11:59:30.982Z,1004.04
2018-08-09T12:00:30.981Z,1003.97
2018-08-09T12:01:31.002Z,1003.96
2018-08-09T12:02:30.949Z,1004.00
2018-08-09T12:03:30.934Z,1003.99
2018-08-09T12:04:30.930Z,1003.92
2018-08-09T12:05:30.918Z,1003.98